Time;durP1;ratioP1;P1;durP2;ratioP2;P2;SDS_P1;SDS_P2;PMS_P1;PMS_P2;Temp;Humidity;BMP_temperature;BMP_pressure;BME280_temperature;BME280_humidity;BME280_pressure;Samples;Min_cycle;Max_cycle;Signal;HPM_P1;HPM_P2
2022/03/04 00:00:22;;;;;;;17.83;7.72;;;;;;;3.21;67.92;101879.16;5061446;28;20098;-71
2022/03/04 00:02:49;;;;;;;21.60;8.85;;;;;;;2.99;68.88;101886.13;5070252;28;20045;-71
2022/03/04 00:05:15;;;;;;;23.13;8.30;;;;;;;3.12;68.49;101886.94;5041766;28;20448;-71
2022/03/04 00:07:41;;;;;;;20.00;9.13;;;;;;;3.11;68.44;101886.06;5050814;28;20504;-71
2022/03/04 00:10:08;;;;;;;20.50;8.20;;;;;;;3.08;68.48;101886.09;5046826;28;20126;-71
2022/03/04 00:12:35;;;;;;;21.40;9.18;;;;;;;2.98;69.04;101889.56;5049903;28;20098;-71
2022/03/04 00:15:01;;;;;;;20.08;9.63;;;;;;;2.44;71.03;101883.59;5055103;28;20072;-71
2022/03/04 00:17:29;;;;;;;19.42;9.52;;;;;;;2.52;71.29;101886.16;5065792;28;20071;-71
2022/03/04 00:19:55;;;;;;;20.40;9.25;;;;;;;2.98;69.61;101881.81;5070195;28;20048;-72
2022/03/04 00:22:22;;;;;;;20.23;8.63;;;;;;;2.81;70.00;101883.53;5068073;28;20094;-71
2022/03/04 00:24:49;;;;;;;19.83;8.68;;;;;;;3.36;68.25;101879.09;5049579;28;20140;-71
2022/03/04 00:27:16;;;;;;;22.33;9.60;;;;;;;2.45;70.73;101887.03;5069490;28;20045;-71
2022/03/04 00:29:42;;;;;;;17.48;8.40;;;;;;;2.28;72.29;101881.00;5069849;28;20040;-71
2022/03/04 00:32:09;;;;;;;19.10;8.88;;;;;;;2.44;71.88;101880.13;5070005;28;20044;-71
2022/03/04 00:34:38;;;;;;;24.17;9.23;;;;;;;2.78;70.60;101876.66;5070194;28;20151;-71
2022/03/04 00:37:04;;;;;;;16.90;8.55;;;;;;;3.13;69.10;101873.13;5062852;28;20037;-71
2022/03/04 00:39:31;;;;;;;23.15;8.90;;;;;;;3.05;69.64;101874.88;5047843;28;20464;-71
2022/03/04 00:41:57;;;;;;;20.67;9.13;;;;;;;3.21;69.06;101868.78;5037627;28;20576;-71
2022/03/04 00:44:23;;;;;;;23.02;9.48;;;;;;;3.54;68.17;101873.81;5053678;28;20048;-71
2022/03/04 00:46:50;;;;;;;19.13;8.68;;;;;;;3.44;68.21;101862.63;5067264;28;20125;-71
2022/03/04 00:49:16;;;;;;;23.63;9.98;;;;;;;3.16;69.21;101865.31;5064890;28;20110;-71
2022/03/04 00:51:44;;;;;;;26.38;10.13;;;;;;;2.74;71.06;101867.16;5069626;28;20072;-71
2022/03/04 00:54:11;;;;;;;25.13;10.02;;;;;;;2.87;70.61;101870.59;5067463;28;20454;-71
2022/03/04 00:56:37;;;;;;;20.83;9.23;;;;;;;2.87;71.23;101881.81;5068042;28;20044;-71
2022/03/04 00:59:04;;;;;;;21.52;9.40;;;;;;;3.20;69.56;101880.00;5067913;28;20131;-71
2022/03/04 01:01:31;;;;;;;24.05;9.27;;;;;;;2.12;73.51;101880.13;5058734;28;20439;-71
2022/03/04 01:03:57;;;;;;;21.80;9.25;;;;;;;2.87;71.30;101881.81;5066660;28;20049;-71
2022/03/04 01:06:23;;;;;;;23.77;9.85;;;;;;;3.00;70.67;101879.19;5066506;28;20412;-71
2022/03/04 01:08:51;;;;;;;26.50;10.50;;;;;;;2.92;70.60;101877.47;5064413;28;20459;-71
2022/03/04 01:11:17;;;;;;;20.67;9.82;;;;;;;2.79;71.32;101873.22;5043518;28;20448;-70
2022/03/04 01:13:44;;;;;;;18.80;8.13;;;;;;;3.02;70.50;101882.66;5066620;28;20044;-70
2022/03/04 01:16:10;;;;;;;24.60;10.23;;;;;;;2.98;70.42;101884.38;5064850;28;20056;-70
2022/03/04 01:18:36;;;;;;;22.60;9.55;;;;;;;2.60;72.24;101886.16;5054146;28;20416;-70
2022/03/04 01:21:03;;;;;;;26.90;9.68;;;;;;;2.69;71.75;101887.03;5055073;28;20053;-70
2022/03/04 01:23:29;;;;;;;23.92;9.50;;;;;;;2.98;70.97;101884.38;5058105;28;20098;-70
2022/03/04 01:25:57;;;;;;;24.08;10.60;;;;;;;2.82;71.52;101887.88;5063551;28;20090;-70
2022/03/04 01:28:24;;;;;;;19.52;9.32;;;;;;;3.29;69.76;101886.00;5066568;28;20041;-70
2022/03/04 01:30:50;;;;;;;21.63;9.55;;;;;;;3.41;69.20;101891.16;5059103;28;20467;-70
2022/03/04 01:33:17;;;;;;;20.90;9.88;;;;;;;3.26;69.83;101886.03;5046260;28;20504;-70
2022/03/04 01:35:43;;;;;;;21.83;9.18;;;;;;;3.65;68.12;101886.72;5046038;28;20051;-70
2022/03/04 01:38:10;;;;;;;21.80;9.15;;;;;;;3.56;68.40;101884.16;5046761;28;20049;-70
2022/03/04 01:40:36;;;;;;;21.65;9.50;;;;;;;3.32;68.82;101898.13;5045905;28;20589;-71
2022/03/04 01:43:04;;;;;;;22.65;10.15;;;;;;;3.29;69.45;101893.78;5048837;28;20048;-70
2022/03/04 01:45:30;;;;;;;20.15;9.60;;;;;;;3.61;68.26;101891.06;5050017;28;20101;-70
2022/03/04 01:47:57;;;;;;;21.95;9.43;;;;;;;2.43;72.34;101896.53;5045530;28;20056;-70
2022/03/04 01:50:25;;;;;;;25.08;10.65;;;;;;;2.43;73.14;101896.53;5064940;28;20114;-70
2022/03/04 01:52:51;;;;;;;19.45;8.93;;;;;;;2.51;72.67;101894.81;5053705;28;20094;-70
2022/03/04 01:55:17;;;;;;;26.98;8.93;;;;;;;2.04;74.53;101880.97;5065526;28;20117;-70
2022/03/04 01:57:44;;;;;;;22.77;9.55;;;;;;;2.29;74.17;101880.16;5064934;28;20683;-70
2022/03/04 02:00:16;;;;;;;25.23;9.85;;;;;;;2.91;71.59;101873.19;5048065;28;20103;-70
2022/03/04 02:02:44;;;;;;;22.55;9.20;;;;;;;3.33;69.70;101876.47;5045779;28;20409;-70
2022/03/04 02:05:13;;;;;;;22.92;9.68;;;;;;;3.35;69.37;101872.19;5054317;28;20094;-71
2022/03/04 02:07:39;;;;;;;23.13;9.25;;;;;;;2.92;71.27;101874.03;5066054;28;20041;-71
2022/03/04 02:10:08;;;;;;;21.75;9.25;;;;;;;2.94;71.23;101873.19;5062851;28;20102;-71
2022/03/04 02:12:35;;;;;;;22.88;9.95;;;;;;;3.10;70.68;101873.13;5065274;28;20044;-71
2022/03/04 02:15:02;;;;;;;18.90;8.75;;;;;;;2.88;71.31;101870.56;5063398;28;20037;-71
2022/03/04 02:17:30;;;;;;;21.40;9.13;;;;;;;3.26;70.22;101867.00;5078963;28;20218;-70
2022/03/04 02:19:57;;;;;;;21.52;8.80;;;;;;;3.60;69.19;101855.63;5072900;28;20075;-70
2022/03/04 02:22:25;;;;;;;21.33;9.35;;;;;;;3.73;68.40;101846.88;5067736;28;20055;-70
2022/03/04 02:24:51;;;;;;;22.30;9.73;;;;;;;3.56;69.04;101851.31;5070632;28;20044;-71
2022/03/04 02:27:18;;;;;;;22.42;9.48;;;;;;;3.40;69.55;101849.66;5066584;28;20052;-70
2022/03/04 02:29:44;;;;;;;21.50;9.88;;;;;;;3.77;68.34;101848.59;5069921;28;20070;-70
2022/03/04 02:32:11;;;;;;;18.13;8.88;;;;;;;3.85;68.28;101845.97;5072183;28;20052;-71
2022/03/04 02:34:37;;;;;;;25.95;10.30;;;;;;;3.32;70.09;101847.13;5068063;28;20078;-72
2022/03/04 02:37:04;;;;;;;19.90;9.23;;;;;;;3.79;68.58;101838.22;5067427;28;20045;-72
2022/03/04 02:39:32;;;;;;;19.27;8.25;;;;;;;3.70;68.82;101838.28;5061691;28;20091;-71
2022/03/04 02:41:58;;;;;;;25.23;9.55;;;;;;;3.83;68.37;101835.59;5066131;28;20480;-71
2022/03/04 02:44:25;;;;;;;19.30;8.48;;;;;;;3.85;68.11;101836.44;5065418;28;20044;-72
2022/03/04 02:46:51;;;;;;;20.63;9.18;;;;;;;3.73;68.42;101835.69;5063952;28;20121;-72
2022/03/04 02:49:18;;;;;;;22.40;9.13;;;;;;;3.70;68.70;101830.47;5064877;28;20044;-71
2022/03/04 02:51:44;;;;;;;22.25;9.48;;;;;;;3.48;69.60;101831.47;5064270;28;20052;-71
2022/03/04 02:54:10;;;;;;;19.88;9.50;;;;;;;3.68;69.10;101835.69;5060023;28;20045;-71
2022/03/04 02:56:38;;;;;;;21.50;8.85;;;;;;;3.35;69.99;101828.97;5051114;28;20574;-71
2022/03/04 02:59:04;;;;;;;19.90;9.52;;;;;;;2.34;73.80;101837.00;5043981;28;20481;-71
2022/03/04 03:01:31;;;;;;;19.15;9.05;;;;;;;2.96;72.51;101829.09;5062110;28;20428;-71
2022/03/04 03:03:57;;;;;;;17.77;8.45;;;;;;;3.00;71.85;101828.22;5064759;28;20114;-71
2022/03/04 03:06:24;;;;;;;23.88;9.52;;;;;;;2.83;72.73;101823.13;5065468;28;20048;-71
2022/03/04 03:08:50;;;;;;;19.48;8.82;;;;;;;3.25;71.38;101816.91;5047835;28;20041;-71
2022/03/04 03:11:16;;;;;;;23.80;9.52;;;;;;;3.56;70.04;101827.97;5067760;28;20094;-71
2022/03/04 03:13:44;;;;;;;22.42;9.02;;;;;;;3.90;69.01;101826.91;5049155;28;20470;-71
2022/03/04 03:16:11;;;;;;;21.38;9.80;;;;;;;3.75;68.89;101829.59;5065420;28;20044;-71
2022/03/04 03:18:37;;;;;;;23.10;10.18;;;;;;;3.29;70.78;101833.28;5057769;28;20071;-71
2022/03/04 03:21:03;;;;;;;21.45;9.43;;;;;;;3.63;69.67;101837.44;5056856;28;20067;-73
2022/03/04 03:23:30;;;;;;;24.73;9.85;;;;;;;3.60;69.45;101845.25;5068205;28;20287;-71
2022/03/04 03:25:56;;;;;;;20.95;9.20;;;;;;;3.21;70.91;101848.03;5053864;28;20539;-71
2022/03/04 03:28:22;;;;;;;22.63;9.48;;;;;;;3.61;69.78;101851.31;5062776;28;20074;-72
2022/03/04 03:30:50;;;;;;;23.85;9.63;;;;;;;3.84;68.55;101847.69;5053095;28;20045;-72
2022/03/04 03:33:16;;;;;;;22.70;9.38;;;;;;;3.82;68.63;101841.66;5068043;28;20055;-71
2022/03/04 03:35:43;;;;;;;30.20;10.07;;;;;;;3.46;69.94;101843.59;5056116;28;20114;-71
2022/03/04 03:38:09;;;;;;;23.23;9.57;;;;;;;3.27;70.65;101851.47;5067630;28;20389;-72
2022/03/04 03:40:36;;;;;;;19.48;9.68;;;;;;;3.42;70.35;101859.19;5058192;28;20094;-71
2022/03/04 03:43:02;;;;;;;25.13;10.43;;;;;;;3.24;70.78;101861.84;5069389;28;20106;-71
2022/03/04 03:45:29;;;;;;;25.35;9.32;;;;;;;3.23;71.00;101862.72;5068185;28;20106;-72
2022/03/04 03:47:56;;;;;;;22.27;9.63;;;;;;;3.36;71.26;101859.19;5063611;28;20045;-71
2022/03/04 03:50:23;;;;;;;22.50;9.48;;;;;;;3.74;69.83;101865.91;5066060;28;20094;-71
2022/03/04 03:52:49;;;;;;;23.15;9.38;;;;;;;3.21;71.10;101859.28;5070476;28;20109;-71
2022/03/04 03:55:15;;;;;;;18.25;9.32;;;;;;;3.41;70.57;101859.16;5070459;28;20583;-71
2022/03/04 03:57:42;;;;;;;23.50;9.88;;;;;;;3.30;71.60;101850.59;5057852;28;20048;-71
2022/03/04 04:00:10;;;;;;;21.60;9.38;;;;;;;3.47;70.53;101858.31;5064120;28;20071;-71
2022/03/04 04:02:37;;;;;;;20.95;9.48;;;;;;;3.49;70.78;101866.91;5049724;28;20049;-71
2022/03/04 04:05:06;;;;;;;22.80;9.45;;;;;;;3.78;69.79;101860.72;5038065;28;20512;-71
2022/03/04 04:07:32;;;;;;;20.20;9.05;;;;;;;3.89;69.34;101873.59;5046752;28;20207;-71
2022/03/04 04:09:58;;;;;;;22.48;8.77;;;;;;;3.81;69.37;101873.66;5060352;28;20053;-71
2022/03/04 04:12:25;;;;;;;20.23;8.93;;;;;;;3.56;70.21;101869.47;5059456;28;20048;-71
2022/03/04 04:14:51;;;;;;;19.67;8.48;;;;;;;3.70;70.03;101870.25;5068581;28;20137;-71
2022/03/04 04:17:17;;;;;;;21.25;9.65;;;;;;;3.76;69.83;101869.38;5070594;28;20496;-71
2022/03/04 04:19:43;;;;;;;22.05;8.63;;;;;;;3.97;69.11;101870.97;5067799;28;20571;-71
2022/03/04 04:22:11;;;;;;;22.33;9.73;;;;;;;4.08;68.78;101874.34;5066855;28;20098;-71
2022/03/04 04:24:38;;;;;;;20.02;8.65;;;;;;;3.99;68.69;101877.84;5064862;28;20048;-71
2022/03/04 04:27:04;;;;;;;22.23;9.23;;;;;;;3.67;69.95;101887.56;5060367;28;20040;-71
2022/03/04 04:29:31;;;;;;;23.02;9.98;;;;;;;3.68;70.03;101878.94;5058245;28;20080;-71
2022/03/04 04:31:57;;;;;;;22.02;9.10;;;;;;;3.69;69.64;101883.25;5068066;28;20045;-71
2022/03/04 04:34:23;;;;;;;19.10;9.30;;;;;;;3.78;69.64;101888.38;5068182;28;20041;-71
2022/03/04 04:36:50;;;;;;;17.52;8.43;;;;;;;3.78;69.71;101888.38;5069569;28;20467;-71
2022/03/04 04:39:17;;;;;;;21.17;9.77;;;;;;;3.77;69.94;101890.09;5054629;28;20090;-71
2022/03/04 04:41:44;;;;;;;22.02;9.77;;;;;;;3.93;69.38;101885.69;5048935;28;20091;-71
2022/03/04 04:44:11;;;;;;;21.02;8.82;;;;;;;3.90;69.49;101885.72;5045444;28;20044;-72
2022/03/04 04:46:38;;;;;;;22.23;9.77;;;;;;;3.63;70.40;101886.72;5068134;28;20049;-72
2022/03/04 04:49:04;;;;;;;22.85;10.02;;;;;;;3.63;70.27;101878.94;5064442;28;20045;-72
2022/03/04 04:51:30;;;;;;;20.05;8.95;;;;;;;3.75;70.18;101881.47;5042744;28;20041;-72
2022/03/04 04:53:57;;;;;;;21.42;8.57;;;;;;;3.90;69.54;101881.41;5050679;28;20045;-72
2022/03/04 04:56:24;;;;;;;20.90;8.95;;;;;;;3.85;69.62;101877.97;5065798;28;20048;-72
2022/03/04 04:58:51;;;;;;;20.40;8.88;;;;;;;3.71;70.65;101881.50;5067792;28;20455;-72
2022/03/04 05:01:18;;;;;;;21.30;9.38;;;;;;;3.76;70.46;101879.75;5067653;28;20420;-72
2022/03/04 05:03:44;;;;;;;19.20;9.30;;;;;;;3.87;70.23;101889.22;5053810;28;20044;-72
2022/03/04 05:06:11;;;;;;;18.20;8.57;;;;;;;3.75;70.58;101891.84;5064078;28;20098;-72
2022/03/04 05:08:37;;;;;;;18.52;8.13;;;;;;;3.73;70.80;101890.16;5064528;28;20044;-72
2022/03/04 05:11:04;;;;;;;18.85;9.10;;;;;;;3.79;70.82;101888.38;5047439;28;20127;-72
2022/03/04 05:13:32;;;;;;;24.55;9.40;;;;;;;3.57;71.74;101881.59;5066754;28;20049;-72
2022/03/04 05:15:58;;;;;;;23.85;10.10;;;;;;;3.63;71.79;101891.91;5061736;28;20056;-72
2022/03/04 05:18:24;;;;;;;20.40;8.27;;;;;;;3.39;72.80;101894.63;5067835;28;20098;-72
2022/03/04 05:20:51;;;;;;;23.10;9.48;;;;;;;3.28;73.35;101899.84;5064209;28;20416;-72
2022/03/04 05:23:58;;;;;;;21.33;8.68;;;;;;;3.30;73.70;101894.66;5060188;28;20044;-72
2022/03/04 05:26:08;;;;;;;19.70;8.27;;;;;;;3.22;73.87;101893.81;5043817;28;20041;-72
2022/03/04 05:28:35;;;;;;;19.95;8.15;;;;;;;3.26;73.84;101896.38;5052299;28;20103;-73
2022/03/04 05:31:02;;;;;;;18.80;8.77;;;;;;;3.22;73.90;101891.22;5054591;28;20048;-72
2022/03/04 05:33:28;;;;;;;17.92;8.07;;;;;;;3.24;74.07;101886.91;5067698;28;20053;-72
2022/03/04 05:35:55;;;;;;;19.98;8.48;;;;;;;3.33;73.78;101894.63;5050849;28;20036;-72
2022/03/04 05:38:21;;;;;;;22.70;8.73;;;;;;;3.22;74.32;101897.25;5046007;28;20045;-72
2022/03/04 05:40:47;;;;;;;15.80;7.68;;;;;;;3.20;74.46;101904.19;5041793;28;20099;-72
2022/03/04 05:43:14;;;;;;;14.15;7.03;;;;;;;3.05;74.96;101900.78;5036892;28;20045;-72
2022/03/04 05:45:41;;;;;;;15.85;7.40;;;;;;;2.86;75.51;101911.19;5062293;28;20045;-71
2022/03/04 05:48:08;;;;;;;16.63;7.47;;;;;;;2.92;75.44;101911.16;5065849;28;20048;-72
2022/03/04 05:50:34;;;;;;;18.17;8.00;;;;;;;3.01;75.05;101910.28;5047111;28;20053;-72
2022/03/04 05:53:01;;;;;;;18.48;8.55;;;;;;;3.09;75.11;101910.28;5053028;28;20068;-72
2022/03/04 05:55:27;;;;;;;20.25;8.43;;;;;;;3.30;74.26;101915.38;5061504;28;20074;-71
2022/03/04 05:57:54;;;;;;;17.40;7.82;;;;;;;3.46;73.43;101911.88;5050368;28;20480;-71
2022/03/04 06:00:21;;;;;;;15.73;7.15;;;;;;;3.42;73.53;101921.41;5043790;28;20496;-71
2022/03/04 06:02:48;;;;;;;16.05;7.32;;;;;;;3.06;74.51;101921.50;5032373;28;20063;-71
2022/03/04 06:05:15;;;;;;;21.48;9.23;;;;;;;3.00;74.96;101924.09;5046815;28;20072;-71
2022/03/04 06:07:41;;;;;;;21.58;9.48;;;;;;;2.69;76.90;101925.88;5048798;28;20049;-71
2022/03/04 06:10:08;;;;;;;24.10;8.63;;;;;;;2.45;77.97;101925.88;5036068;28;20076;-71
2022/03/04 06:12:34;;;;;;;19.52;9.15;;;;;;;2.38;78.44;101932.78;5056666;28;20045;-71
2022/03/04 06:15:00;;;;;;;24.08;9.90;;;;;;;2.28;79.21;101936.22;5067537;28;20131;-71
2022/03/04 06:17:27;;;;;;;24.90;9.52;;;;;;;2.41;78.87;101932.78;5064190;28;20075;-71
2022/03/04 06:19:54;;;;;;;18.95;9.07;;;;;;;2.65;78.19;101937.09;5053742;28;20099;-71
2022/03/04 06:22:21;;;;;;;20.42;8.70;;;;;;;2.46;78.74;101925.00;5060028;28;20109;-71
2022/03/04 06:24:47;;;;;;;20.25;9.27;;;;;;;2.35;78.76;101935.38;5051694;28;20049;-71
2022/03/04 06:27:14;;;;;;;25.80;9.57;;;;;;;2.61;78.02;101934.50;5046643;28;20045;-71
2022/03/04 06:29:40;;;;;;;23.23;9.68;;;;;;;2.48;78.29;101943.16;5026389;28;20102;-71
2022/03/04 06:32:07;;;;;;;27.02;9.75;;;;;;;2.45;78.11;101941.41;5027796;28;20045;-71
2022/03/04 06:34:34;;;;;;;24.95;9.88;;;;;;;2.43;78.47;101943.13;5032418;28;20048;-71
2022/03/04 06:37:02;;;;;;;22.60;9.68;;;;;;;2.45;78.45;101939.69;5027574;28;20049;-71
2022/03/04 06:39:28;;;;;;;20.20;8.60;;;;;;;2.33;78.98;101944.84;5029654;28;20049;-71
2022/03/04 06:41:54;;;;;;;25.05;9.07;;;;;;;1.95;80.30;101943.91;5047290;28;20041;-71
2022/03/04 06:44:21;;;;;;;26.33;8.93;;;;;;;1.82;80.96;101955.94;5062720;28;20105;-71
2022/03/04 06:46:47;;;;;;;20.45;9.40;;;;;;;1.71;81.63;101951.59;5061756;28;20067;-71
2022/03/04 06:49:14;;;;;;;27.55;9.25;;;;;;;1.70;81.67;101955.88;5069419;28;20094;-71
2022/03/04 06:51:41;;;;;;;20.40;9.07;;;;;;;1.77;81.54;101949.91;5062107;28;20497;-71
2022/03/04 06:54:08;;;;;;;21.58;8.95;;;;;;;1.98;81.02;101956.84;5047018;28;20102;-71
2022/03/04 06:56:35;;;;;;;27.63;9.45;;;;;;;2.02;80.56;101962.91;5055522;28;20488;-68
2022/03/04 06:59:01;;;;;;;21.05;8.80;;;;;;;2.12;79.81;101957.75;5048758;28;20044;-68
2022/03/04 07:01:27;;;;;;;19.73;7.03;;;;;;;2.33;78.60;101959.50;5064056;28;20051;-68
2022/03/04 07:03:54;;;;;;;18.95;8.32;;;;;;;2.17;79.17;101962.94;5063426;28;20045;-68
2022/03/04 07:06:20;;;;;;;23.10;7.95;;;;;;;2.35;78.67;101966.44;5067920;28;20080;-68
2022/03/04 07:08:47;;;;;;;17.55;8.25;;;;;;;2.41;77.94;101968.16;5070252;28;20040;-68
2022/03/04 07:11:14;;;;;;;16.20;7.43;;;;;;;2.40;77.86;101969.03;5055358;28;20500;-69
2022/03/04 07:13:41;;;;;;;15.40;7.10;;;;;;;2.55;77.56;101966.44;5065043;28;20040;-68
2022/03/04 07:16:07;;;;;;;14.85;7.10;;;;;;;2.57;77.01;101977.66;5070117;28;20102;-69
2022/03/04 07:18:34;;;;;;;13.65;6.25;;;;;;;2.74;76.31;101970.75;5070397;28;20488;-68
2022/03/04 07:21:01;;;;;;;13.43;5.28;;;;;;;3.03;74.10;101982.84;5067172;28;20139;-69
2022/03/04 07:23:27;;;;;;;14.35;5.60;;;;;;;3.10;73.71;101981.97;5056612;28;20044;-69
2022/03/04 07:25:54;;;;;;;12.18;6.03;;;;;;;3.03;73.40;101981.09;5051775;28;20060;-69
2022/03/04 07:28:21;;;;;;;11.73;6.25;;;;;;;3.31;72.38;101987.13;5064418;28;20048;-69
2022/03/04 07:30:48;;;;;;;11.38;5.40;;;;;;;3.03;72.49;101990.63;5055391;28;20619;-69
2022/03/04 07:33:14;;;;;;;16.35;6.18;;;;;;;3.17;72.73;101988.88;5064679;28;20044;-69
2022/03/04 07:35:44;;;;;;;13.70;5.90;;;;;;;3.31;72.29;101987.97;5060693;28;20080;-69
2022/03/04 07:38:11;;;;;;;13.27;6.03;;;;;;;3.45;71.15;101982.75;5063835;28;20045;-69
2022/03/04 07:40:38;;;;;;;12.77;5.78;;;;;;;3.39;71.62;101996.59;5068428;28;20052;-68
2022/03/04 07:43:05;;;;;;;17.65;5.90;;;;;;;3.53;71.58;101993.09;5060248;28;20098;-68
2022/03/04 07:45:33;;;;;;;16.30;5.78;;;;;;;3.16;72.51;101993.19;5068859;28;20369;-68
2022/03/04 07:48:00;;;;;;;13.50;6.70;;;;;;;3.54;71.52;101997.44;5060037;28;20121;-68
2022/03/04 07:50:26;;;;;;;11.68;5.80;;;;;;;3.74;71.21;101988.69;5049408;28;20048;-68
2022/03/04 07:52:53;;;;;;;14.82;5.75;;;;;;;3.67;70.89;101992.19;5044429;28;20117;-69
2022/03/04 07:55:20;;;;;;;14.38;5.63;;;;;;;3.79;70.99;102001.66;5058892;28;20091;-69
2022/03/04 07:57:46;;;;;;;12.73;5.93;;;;;;;3.73;71.60;101991.31;5069580;28;20068;-69
2022/03/04 08:00:15;;;;;;;13.52;6.28;;;;;;;3.64;71.57;101993.94;5066667;28;20099;-69
2022/03/04 08:02:43;;;;;;;15.50;6.78;;;;;;;3.18;73.15;102007.00;5068738;28;20052;-69
2022/03/04 08:05:10;;;;;;;13.77;5.88;;;;;;;3.62;71.84;101993.09;5065441;28;20117;-69
2022/03/04 08:07:37;;;;;;;15.27;6.65;;;;;;;3.58;71.62;102002.59;5054299;28;20063;-69
2022/03/04 08:10:05;;;;;;;11.45;5.70;;;;;;;3.66;71.40;102005.19;5054444;28;20066;-69
2022/03/04 08:12:31;;;;;;;11.82;5.00;;;;;;;3.68;71.48;101996.53;5058816;28;20103;-69
2022/03/04 08:14:58;;;;;;;9.07;5.75;;;;;;;3.83;71.17;102009.44;5037700;28;20057;-69
2022/03/04 08:17:24;;;;;;;14.68;5.38;;;;;;;4.03;70.64;102013.69;5066486;28;20064;-69
2022/03/04 08:19:51;;;;;;;11.88;5.32;;;;;;;4.16;69.70;102010.16;5067403;28;20468;-69
2022/03/04 08:22:18;;;;;;;9.73;5.00;;;;;;;3.86;69.71;102014.59;5065537;28;20102;-69
2022/03/04 08:24:44;;;;;;;10.95;5.13;;;;;;;3.75;70.07;102015.50;5054999;28;20091;-69
2022/03/04 08:27:10;;;;;;;11.15;5.57;;;;;;;3.71;69.97;102012.06;5067823;28;20499;-69
2022/03/04 08:29:37;;;;;;;11.13;5.25;;;;;;;4.10;69.56;102016.22;5059205;28;20072;-69
2022/03/04 08:32:04;;;;;;;16.08;6.47;;;;;;;3.46;71.10;101994.00;5060149;28;20046;-69
2022/03/04 08:34:30;;;;;;;11.48;5.13;;;;;;;3.37;71.29;102007.81;5033409;28;20409;-69
2022/03/04 08:36:58;;;;;;;14.02;5.85;;;;;;;3.45;70.62;102013.88;5050318;28;20049;-69
2022/03/04 08:39:24;;;;;;;12.10;5.93;;;;;;;3.88;70.19;102005.06;5045607;28;20044;-69
2022/03/04 08:41:50;;;;;;;14.93;6.03;;;;;;;4.06;69.85;102011.94;5041782;28;20104;-69
2022/03/04 08:44:17;;;;;;;10.98;5.53;;;;;;;4.03;68.16;102014.53;5027503;28;20053;-69
2022/03/04 08:46:43;;;;;;;13.15;5.95;;;;;;;4.45;68.98;102015.16;5032810;28;20045;-69
2022/03/04 08:49:10;;;;;;;12.60;5.93;;;;;;;4.47;67.77;102023.81;5039268;28;20046;-69
2022/03/04 08:51:37;;;;;;;12.35;6.00;;;;;;;4.68;67.58;102014.16;5044267;28;20041;-69
2022/03/04 08:54:06;;;;;;;14.70;5.20;;;;;;;4.78;67.19;102022.72;5049419;28;20047;-69
2022/03/04 08:56:33;;;;;;;10.65;5.38;;;;;;;4.66;65.75;102026.28;5050225;28;20045;-68
2022/03/04 08:58:59;;;;;;;12.13;6.07;;;;;;;4.29;67.18;102020.44;5063964;28;20044;-68
2022/03/04 09:01:26;;;;;;;10.75;5.43;;;;;;;4.37;67.30;102021.28;5066333;28;20098;-68
2022/03/04 09:03:52;;;;;;;11.02;5.40;;;;;;;4.69;67.41;102025.41;5069039;28;20041;-69
2022/03/04 09:06:18;;;;;;;13.32;5.65;;;;;;;4.72;67.99;102022.78;5063589;28;20052;-69
2022/03/04 09:08:45;;;;;;;11.27;5.47;;;;;;;4.59;67.66;102018.53;5062131;28;20069;-69
2022/03/04 09:11:12;;;;;;;10.20;5.22;;;;;;;4.27;68.12;102018.75;5036583;28;20103;-69
2022/03/04 09:13:39;;;;;;;9.98;5.10;;;;;;;4.74;67.64;102021.03;5057022;28;20037;-68
2022/03/04 09:16:05;;;;;;;27.65;5.90;;;;;;;4.80;66.38;102021.84;5066516;28;20045;-69
2022/03/04 09:18:32;;;;;;;11.63;5.38;;;;;;;4.81;67.82;102028.75;5065861;28;20179;-69
2022/03/04 09:20:58;;;;;;;12.25;5.20;;;;;;;5.14;66.41;102022.41;5066344;28;20129;-68
2022/03/04 09:23:24;;;;;;;14.35;4.82;;;;;;;5.50;65.40;102028.16;5065823;28;20554;-69
2022/03/04 09:25:52;;;;;;;12.15;5.65;;;;;;;5.08;66.79;102029.41;5067029;28;20504;-68
2022/03/04 09:28:19;;;;;;;13.32;5.25;;;;;;;5.26;66.73;102021.44;5067268;28;20648;-68
2022/03/04 09:30:46;;;;;;;10.38;5.60;;;;;;;5.16;66.87;102032.81;5058161;28;20069;-69
2022/03/04 09:33:12;;;;;;;11.20;5.35;;;;;;;5.44;66.42;102034.28;5029071;28;20099;-69
2022/03/04 09:35:39;;;;;;;8.98;4.50;;;;;;;5.43;65.68;102031.69;5042999;28;20068;-69
2022/03/04 09:38:05;;;;;;;10.52;5.30;;;;;;;5.31;66.90;102032.69;5047220;28;20045;-69
2022/03/04 09:40:32;;;;;;;11.93;5.47;;;;;;;5.33;66.63;102036.97;5044788;28;20052;-69
2022/03/04 09:42:58;;;;;;;11.82;5.60;;;;;;;5.32;65.21;102037.00;5047095;28;20420;-69
2022/03/04 09:45:26;;;;;;;11.27;5.38;;;;;;;5.55;65.66;102031.56;5030231;28;20052;-69
2022/03/04 09:47:52;;;;;;;10.77;4.80;;;;;;;5.30;65.54;102036.16;5032012;28;20514;-69
2022/03/04 09:50:20;;;;;;;11.23;5.30;;;;;;;5.16;66.57;102018.09;5034994;28;20048;-68
2022/03/04 09:52:46;;;;;;;11.10;5.05;;;;;;;5.68;65.63;102020.16;5047995;28;20045;-69
2022/03/04 09:55:13;;;;;;;10.27;5.35;;;;;;;5.99;65.80;102013.72;5041150;28;20045;-69
2022/03/04 09:57:40;;;;;;;10.73;5.78;;;;;;;5.99;65.00;102003.31;5031157;28;20083;-69
2022/03/04 10:00:11;;;;;;;10.35;5.15;;;;;;;6.21;63.95;102014.28;5045569;28;20144;-69
2022/03/04 10:02:39;;;;;;;11.32;5.13;;;;;;;6.57;64.26;102011.19;5063812;28;20044;-69
2022/03/04 10:05:08;;;;;;;10.02;4.72;;;;;;;6.77;64.12;102011.72;5052406;28;20044;-69
2022/03/04 10:07:40;;;;;;;9.30;4.50;;;;;;;6.61;63.24;102010.28;5055934;28;20040;-69
2022/03/04 10:10:11;;;;;;;8.10;4.00;;;;;;;6.19;64.12;102010.88;5050697;28;20045;-68
2022/03/04 10:12:48;;;;;;;10.32;3.78;;;;;;;5.81;64.20;102003.50;5044459;28;20052;-68
2022/03/04 10:15:15;;;;;;;9.13;4.10;;;;;;;5.84;65.50;102012.13;5044444;28;20110;-69
2022/03/04 10:17:58;;;;;;;10.82;3.88;;;;;;;6.27;65.52;102002.06;5036460;28;20042;-69
2022/03/04 10:20:32;;;;;;;10.68;4.03;;;;;;;6.87;62.02;102002.03;5044940;28;20112;-65
2022/03/04 10:23:11;;;;;;;8.05;4.32;;;;;;;6.98;61.31;102001.84;5056065;28;20053;-65
2022/03/04 10:25:37;;;;;;;6.63;3.90;;;;;;;6.73;61.87;102003.97;5046297;28;20326;-65
2022/03/04 10:28:09;;;;;;;10.40;4.53;;;;;;;6.39;61.46;101997.56;5046859;28;20060;-65
2022/03/04 10:30:35;;;;;;;7.40;4.35;;;;;;;6.60;60.83;102002.47;5048097;28;20048;-65
2022/03/04 10:33:10;;;;;;;6.80;3.90;;;;;;;6.62;60.95;102001.53;5044137;28;20074;-66
2022/03/04 10:35:37;;;;;;;8.13;4.03;;;;;;;5.65;63.42;102009.78;5041264;28;20056;-65
2022/03/04 10:38:04;;;;;;;7.82;3.65;;;;;;;5.35;65.23;102014.44;5068051;28;20044;-65
2022/03/04 10:40:32;;;;;;;10.43;4.15;;;;;;;5.92;64.64;102011.22;5064247;28;20099;-66
2022/03/04 10:43:01;;;;;;;9.43;4.43;;;;;;;5.66;63.67;102012.34;5059245;28;20049;-65
2022/03/04 10:45:29;;;;;;;6.85;3.80;;;;;;;5.67;64.01;102011.47;5067429;28;20073;-66
2022/03/04 10:47:58;;;;;;;9.00;3.53;;;;;;;6.05;64.18;102004.97;5058553;28;20428;-65
2022/03/04 10:50:33;;;;;;;6.95;3.45;;;;;;;6.01;62.79;102016.31;5046341;28;20061;-65
2022/03/04 10:53:02;;;;;;;5.40;2.85;;;;;;;6.07;63.40;102019.69;5041667;28;20135;-66
2022/03/04 10:55:39;;;;;;;7.32;3.22;;;;;;;6.30;62.61;102007.25;5060704;28;20045;-65
2022/03/04 10:58:07;;;;;;;5.97;3.30;;;;;;;5.75;64.18;102016.59;5059314;28;20131;-65
2022/03/04 11:00:36;;;;;;;6.07;3.60;;;;;;;5.84;64.79;102014.72;5056323;28;20185;-65
2022/03/04 11:03:03;;;;;;;7.47;3.95;;;;;;;5.63;66.42;102025.41;5048536;28;20056;-65
2022/03/04 11:05:31;;;;;;;9.52;3.72;;;;;;;5.75;66.54;102025.28;5043995;28;20060;-66
2022/03/04 11:07:58;;;;;;;9.13;4.88;;;;;;;5.63;67.10;102022.81;5045050;28;20122;-65
2022/03/04 11:10:25;;;;;;;6.55;3.80;;;;;;;5.60;67.17;102025.44;5033958;28;20080;-65
2022/03/04 11:12:53;;;;;;;7.65;4.07;;;;;;;5.73;66.86;102021.81;5038298;28;20049;-65
2022/03/04 11:15:21;;;;;;;8.95;3.80;;;;;;;5.92;66.09;102032.03;5059247;28;20044;-66
2022/03/04 11:17:48;;;;;;;8.30;3.75;;;;;;;5.92;65.79;102019.03;5047994;28;20045;-66
2022/03/04 11:20:15;;;;;;;9.75;4.13;;;;;;;5.80;66.00;102022.63;5062477;28;20093;-66
2022/03/04 11:22:45;;;;;;;8.50;4.05;;;;;;;5.82;66.03;102013.91;5059507;28;20042;-66
2022/03/04 11:25:14;;;;;;;6.40;3.60;;;;;;;5.64;66.16;102021.94;5054144;28;20127;-66